sensor_id;sensor_type;location;lat;lon;timestamp;temperature;humidity
46976;DHT22;32724;51.094;6.996;2022-12-18T00:02:04;-4.10;99.90
46976;DHT22;32724;51.094;6.996;2022-12-18T00:04:29;-4.10;99.90
46976;DHT22;32724;51.094;6.996;2022-12-18T00:06:55;-4.10;99.90
46976;DHT22;32724;51.094;6.996;2022-12-18T00:09:22;-3.90;99.90
46976;DHT22;32724;51.094;6.996;2022-12-18T00:11:47;-3.80;99.90
46976;DHT22;32724;51.094;6.996;2022-12-18T00:14:13;-3.80;99.90
46976;DHT22;32724;51.094;6.996;2022-12-18T00:16:39;-3.80;99.90
46976;DHT22;32724;51.094;6.996;2022-12-18T00:19:05;-3.90;99.90
46976;DHT22;32724;51.094;6.996;2022-12-18T00:21:31;-3.90;99.90
46976;DHT22;32724;51.094;6.996;2022-12-18T00:23:57;-3.80;99.90
46976;DHT22;32724;51.094;6.996;2022-12-18T00:26:23;-3.80;99.90
46976;DHT22;32724;51.094;6.996;2022-12-18T00:28:50;-3.80;99.90
46976;DHT22;32724;51.094;6.996;2022-12-18T00:31:16;-3.70;99.90
46976;DHT22;32724;51.094;6.996;2022-12-18T00:33:42;-3.70;99.90
46976;DHT22;32724;51.094;6.996;2022-12-18T00:36:15;-3.70;99.90
46976;DHT22;32724;51.094;6.996;2022-12-18T00:38:40;-3.80;99.90
46976;DHT22;32724;51.094;6.996;2022-12-18T00:41:06;-3.80;99.90
46976;DHT22;32724;51.094;6.996;2022-12-18T00:43:33;-3.80;99.90
46976;DHT22;32724;51.094;6.996;2022-12-18T00:45:59;-3.80;99.90
46976;DHT22;32724;51.094;6.996;2022-12-18T00:48:24;-3.70;99.90
46976;DHT22;32724;51.094;6.996;2022-12-18T00:50:50;-3.60;99.90
46976;DHT22;32724;51.094;6.996;2022-12-18T00:53:15;-3.60;99.90
46976;DHT22;32724;51.094;6.996;2022-12-18T00:55:41;-3.70;99.90
46976;DHT22;32724;51.094;6.996;2022-12-18T00:58:07;-3.80;99.90
46976;DHT22;32724;51.094;6.996;2022-12-18T01:00:33;-3.90;99.90
46976;DHT22;32724;51.094;6.996;2022-12-18T01:02:59;-3.90;99.90
46976;DHT22;32724;51.094;6.996;2022-12-18T01:05:24;-3.90;99.90
46976;DHT22;32724;51.094;6.996;2022-12-18T01:07:50;-3.90;99.90
46976;DHT22;32724;51.094;6.996;2022-12-18T01:10:15;-3.80;99.90
46976;DHT22;32724;51.094;6.996;2022-12-18T01:12:41;-3.80;99.90
46976;DHT22;32724;51.094;6.996;2022-12-18T01:15:06;-3.90;99.90
46976;DHT22;32724;51.094;6.996;2022-12-18T01:17:32;-3.90;99.90
46976;DHT22;32724;51.094;6.996;2022-12-18T01:19:58;-3.90;99.90
46976;DHT22;32724;51.094;6.996;2022-12-18T01:22:23;-3.80;99.90
46976;DHT22;32724;51.094;6.996;2022-12-18T01:24:48;-3.80;99.90
46976;DHT22;32724;51.094;6.996;2022-12-18T01:27:14;-3.80;99.90
46976;DHT22;32724;51.094;6.996;2022-12-18T01:29:39;-3.80;99.90
46976;DHT22;32724;51.094;6.996;2022-12-18T01:32:05;-3.80;99.90
46976;DHT22;32724;51.094;6.996;2022-12-18T01:34:30;-3.70;99.90
46976;DHT22;32724;51.094;6.996;2022-12-18T01:36:56;-3.70;99.90
46976;DHT22;32724;51.094;6.996;2022-12-18T01:39:21;-3.80;99.90
46976;DHT22;32724;51.094;6.996;2022-12-18T01:41:47;-3.80;99.90
46976;DHT22;32724;51.094;6.996;2022-12-18T01:47:34;-3.40;99.90
46976;DHT22;32724;51.094;6.996;2022-12-18T01:50:46;-3.60;99.90
46976;DHT22;32724;51.094;6.996;2022-12-18T01:52:47;-3.80;99.90
46976;DHT22;32724;51.094;6.996;2022-12-18T01:55:14;-3.90;99.90
46976;DHT22;32724;51.094;6.996;2022-12-18T01:57:41;-3.90;99.90
46976;DHT22;32724;51.094;6.996;2022-12-18T02:00:09;-3.90;99.90
46976;DHT22;32724;51.094;6.996;2022-12-18T02:02:36;-3.90;99.90
46976;DHT22;32724;51.094;6.996;2022-12-18T02:05:02;-3.90;99.90
46976;DHT22;32724;51.094;6.996;2022-12-18T02:14:45;-3.80;99.90
46976;DHT22;32724;51.094;6.996;2022-12-18T02:17:17;-3.70;99.90
46976;DHT22;32724;51.094;6.996;2022-12-18T02:25:14;-3.80;99.90
46976;DHT22;32724;51.094;6.996;2022-12-18T02:27:42;-3.80;99.90
46976;DHT22;32724;51.094;6.996;2022-12-18T02:30:09;-3.80;99.90
46976;DHT22;32724;51.094;6.996;2022-12-18T02:32:39;-3.80;99.90
46976;DHT22;32724;51.094;6.996;2022-12-18T02:35:06;-3.90;99.90
46976;DHT22;32724;51.094;6.996;2022-12-18T02:37:32;-3.90;99.90
46976;DHT22;32724;51.094;6.996;2022-12-18T02:39:59;-4.00;99.90
46976;DHT22;32724;51.094;6.996;2022-12-18T02:42:24;-4.10;99.90
46976;DHT22;32724;51.094;6.996;2022-12-18T02:44:51;-4.10;99.90
46976;DHT22;32724;51.094;6.996;2022-12-18T02:47:18;-4.10;99.90
46976;DHT22;32724;51.094;6.996;2022-12-18T02:54:45;-4.10;99.90
46976;DHT22;32724;51.094;6.996;2022-12-18T02:57:24;-4.10;99.90
46976;DHT22;32724;51.094;6.996;2022-12-18T03:02:57;-3.80;99.90
46976;DHT22;32724;51.094;6.996;2022-12-18T03:05:36;-3.70;99.90
46976;DHT22;32724;51.094;6.996;2022-12-18T03:08:09;-3.70;99.90
46976;DHT22;32724;51.094;6.996;2022-12-18T03:10:38;-3.70;99.90
46976;DHT22;32724;51.094;6.996;2022-12-18T03:13:06;-3.80;99.90
46976;DHT22;32724;51.094;6.996;2022-12-18T03:15:37;-3.80;99.90
46976;DHT22;32724;51.094;6.996;2022-12-18T03:18:25;-3.90;99.90
46976;DHT22;32724;51.094;6.996;2022-12-18T03:20:49;-3.90;99.90
46976;DHT22;32724;51.094;6.996;2022-12-18T03:23:16;-3.80;99.90
46976;DHT22;32724;51.094;6.996;2022-12-18T03:25:43;-3.80;99.90
46976;DHT22;32724;51.094;6.996;2022-12-18T03:28:16;-3.90;99.90
46976;DHT22;32724;51.094;6.996;2022-12-18T03:30:44;-3.70;99.90
46976;DHT22;32724;51.094;6.996;2022-12-18T03:33:12;-3.70;99.90
46976;DHT22;32724;51.094;6.996;2022-12-18T03:35:41;-3.60;99.90
46976;DHT22;32724;51.094;6.996;2022-12-18T03:38:08;-3.70;99.90
46976;DHT22;32724;51.094;6.996;2022-12-18T03:43:10;-3.70;99.90
46976;DHT22;32724;51.094;6.996;2022-12-18T03:45:37;-3.70;99.90
46976;DHT22;32724;51.094;6.996;2022-12-18T03:55:44;-3.40;99.90
46976;DHT22;32724;51.094;6.996;2022-12-18T03:58:10;-3.40;99.90
46976;DHT22;32724;51.094;6.996;2022-12-18T04:00:38;-3.50;99.90
46976;DHT22;32724;51.094;6.996;2022-12-18T04:03:04;-3.50;99.90
46976;DHT22;32724;51.094;6.996;2022-12-18T04:05:30;-3.60;99.90
46976;DHT22;32724;51.094;6.996;2022-12-18T04:07:55;-3.50;99.90
46976;DHT22;32724;51.094;6.996;2022-12-18T04:10:21;-3.50;99.90
46976;DHT22;32724;51.094;6.996;2022-12-18T04:12:47;-3.50;99.90
46976;DHT22;32724;51.094;6.996;2022-12-18T04:15:13;-3.50;99.90
46976;DHT22;32724;51.094;6.996;2022-12-18T04:17:38;-3.60;99.90
46976;DHT22;32724;51.094;6.996;2022-12-18T04:20:05;-3.40;99.90
46976;DHT22;32724;51.094;6.996;2022-12-18T04:22:30;-3.40;99.90
46976;DHT22;32724;51.094;6.996;2022-12-18T04:24:56;-3.50;99.90
46976;DHT22;32724;51.094;6.996;2022-12-18T04:27:21;-3.60;99.90
46976;DHT22;32724;51.094;6.996;2022-12-18T04:29:47;-3.60;99.90
46976;DHT22;32724;51.094;6.996;2022-12-18T04:32:12;-3.60;99.90
46976;DHT22;32724;51.094;6.996;2022-12-18T04:34:38;-3.70;99.90
46976;DHT22;32724;51.094;6.996;2022-12-18T04:37:03;-3.80;99.90
46976;DHT22;32724;51.094;6.996;2022-12-18T04:39:28;-3.90;99.90
46976;DHT22;32724;51.094;6.996;2022-12-18T04:41:54;-4.00;99.90
46976;DHT22;32724;51.094;6.996;2022-12-18T04:44:19;-4.10;99.90
46976;DHT22;32724;51.094;6.996;2022-12-18T04:46:45;-4.20;99.90
46976;DHT22;32724;51.094;6.996;2022-12-18T04:49:10;-4.20;99.90
46976;DHT22;32724;51.094;6.996;2022-12-18T04:51:36;-4.30;99.90
46976;DHT22;32724;51.094;6.996;2022-12-18T04:54:02;-4.30;99.90
46976;DHT22;32724;51.094;6.996;2022-12-18T04:56:27;-4.30;99.90
46976;DHT22;32724;51.094;6.996;2022-12-18T04:58:53;-4.40;99.90
46976;DHT22;32724;51.094;6.996;2022-12-18T05:01:18;-4.40;99.90
46976;DHT22;32724;51.094;6.996;2022-12-18T05:03:44;-4.50;99.90
46976;DHT22;32724;51.094;6.996;2022-12-18T05:06:09;-4.60;99.90
46976;DHT22;32724;51.094;6.996;2022-12-18T05:08:35;-4.70;99.90
46976;DHT22;32724;51.094;6.996;2022-12-18T05:11:01;-4.70;99.90
46976;DHT22;32724;51.094;6.996;2022-12-18T05:13:28;-4.80;99.90
46976;DHT22;32724;51.094;6.996;2022-12-18T05:15:53;-4.90;99.90
46976;DHT22;32724;51.094;6.996;2022-12-18T05:18:19;-4.90;99.90
46976;DHT22;32724;51.094;6.996;2022-12-18T05:20:44;-4.70;99.90
46976;DHT22;32724;51.094;6.996;2022-12-18T05:23:10;-4.70;99.90
46976;DHT22;32724;51.094;6.996;2022-12-18T05:25:35;-4.70;99.90
46976;DHT22;32724;51.094;6.996;2022-12-18T05:28:01;-4.80;99.90
46976;DHT22;32724;51.094;6.996;2022-12-18T05:30:26;-4.90;99.90
46976;DHT22;32724;51.094;6.996;2022-12-18T05:32:53;-4.90;99.90
46976;DHT22;32724;51.094;6.996;2022-12-18T05:35:18;-5.10;99.90
46976;DHT22;32724;51.094;6.996;2022-12-18T05:37:43;-5.10;99.90
46976;DHT22;32724;51.094;6.996;2022-12-18T05:40:09;-5.10;99.90
46976;DHT22;32724;51.094;6.996;2022-12-18T05:42:35;-5.10;99.90
46976;DHT22;32724;51.094;6.996;2022-12-18T05:45:00;-5.10;99.90
46976;DHT22;32724;51.094;6.996;2022-12-18T05:47:26;-4.90;99.90
46976;DHT22;32724;51.094;6.996;2022-12-18T05:49:51;-5.00;99.90
46976;DHT22;32724;51.094;6.996;2022-12-18T05:52:17;-5.00;99.90
46976;DHT22;32724;51.094;6.996;2022-12-18T05:54:42;-4.90;99.90
46976;DHT22;32724;51.094;6.996;2022-12-18T05:57:08;-5.00;99.90
46976;DHT22;32724;51.094;6.996;2022-12-18T05:59:33;-5.00;99.90
46976;DHT22;32724;51.094;6.996;2022-12-18T06:01:59;-5.10;99.90
46976;DHT22;32724;51.094;6.996;2022-12-18T06:04:26;-5.20;99.90
46976;DHT22;32724;51.094;6.996;2022-12-18T06:06:51;-5.20;99.90
46976;DHT22;32724;51.094;6.996;2022-12-18T06:09:17;-5.20;99.90
46976;DHT22;32724;51.094;6.996;2022-12-18T06:11:42;-5.20;99.90
46976;DHT22;32724;51.094;6.996;2022-12-18T06:14:08;-5.20;99.90
46976;DHT22;32724;51.094;6.996;2022-12-18T06:16:34;-5.20;99.90
46976;DHT22;32724;51.094;6.996;2022-12-18T06:19:01;-5.20;99.90
46976;DHT22;32724;51.094;6.996;2022-12-18T06:21:27;-4.80;99.90
46976;DHT22;32724;51.094;6.996;2022-12-18T06:23:53;-4.70;99.90
46976;DHT22;32724;51.094;6.996;2022-12-18T06:26:18;-4.90;99.90
46976;DHT22;32724;51.094;6.996;2022-12-18T06:28:44;-4.20;99.90
46976;DHT22;32724;51.094;6.996;2022-12-18T06:31:10;-4.50;99.90
46976;DHT22;32724;51.094;6.996;2022-12-18T06:33:35;-4.60;99.90
46976;DHT22;32724;51.094;6.996;2022-12-18T06:36:11;-4.70;99.90
46976;DHT22;32724;51.094;6.996;2022-12-18T06:38:37;-4.70;99.90
46976;DHT22;32724;51.094;6.996;2022-12-18T06:41:13;-4.90;99.90
46976;DHT22;32724;51.094;6.996;2022-12-18T06:43:39;-5.00;99.90
46976;DHT22;32724;51.094;6.996;2022-12-18T06:46:04;-5.10;99.90
46976;DHT22;32724;51.094;6.996;2022-12-18T06:48:31;-5.20;99.90
46976;DHT22;32724;51.094;6.996;2022-12-18T06:50:57;-5.20;99.90
46976;DHT22;32724;51.094;6.996;2022-12-18T06:53:23;-5.30;99.90
46976;DHT22;32724;51.094;6.996;2022-12-18T06:55:48;-5.60;99.90
46976;DHT22;32724;51.094;6.996;2022-12-18T06:58:14;-5.80;99.90
46976;DHT22;32724;51.094;6.996;2022-12-18T07:00:40;-5.90;99.90
46976;DHT22;32724;51.094;6.996;2022-12-18T07:03:05;-6.10;99.90
46976;DHT22;32724;51.094;6.996;2022-12-18T07:05:31;-6.20;99.90
46976;DHT22;32724;51.094;6.996;2022-12-18T07:07:57;-6.30;99.90
46976;DHT22;32724;51.094;6.996;2022-12-18T07:10:22;-6.30;99.90
46976;DHT22;32724;51.094;6.996;2022-12-18T07:12:48;-6.20;99.90
46976;DHT22;32724;51.094;6.996;2022-12-18T07:15:13;-6.20;99.90
46976;DHT22;32724;51.094;6.996;2022-12-18T07:17:40;-6.30;99.90
46976;DHT22;32724;51.094;6.996;2022-12-18T07:20:05;-6.30;99.90
46976;DHT22;32724;51.094;6.996;2022-12-18T07:22:31;-6.30;99.90
46976;DHT22;32724;51.094;6.996;2022-12-18T07:24:56;-6.40;99.90
46976;DHT22;32724;51.094;6.996;2022-12-18T07:27:22;-6.30;99.90
46976;DHT22;32724;51.094;6.996;2022-12-18T07:29:47;-6.30;99.90
46976;DHT22;32724;51.094;6.996;2022-12-18T07:32:13;-6.30;99.90
46976;DHT22;32724;51.094;6.996;2022-12-18T07:34:39;-6.20;99.90
46976;DHT22;32724;51.094;6.996;2022-12-18T07:37:04;-6.20;99.90
46976;DHT22;32724;51.094;6.996;2022-12-18T07:39:30;-6.20;99.90
46976;DHT22;32724;51.094;6.996;2022-12-18T07:41:55;-5.90;99.90
46976;DHT22;32724;51.094;6.996;2022-12-18T07:44:39;-5.80;99.90
46976;DHT22;32724;51.094;6.996;2022-12-18T07:47:05;-5.80;99.90
46976;DHT22;32724;51.094;6.996;2022-12-18T07:49:30;-5.80;99.90
46976;DHT22;32724;51.094;6.996;2022-12-18T07:51:56;-5.80;99.90
46976;DHT22;32724;51.094;6.996;2022-12-18T07:54:22;-5.70;99.90
46976;DHT22;32724;51.094;6.996;2022-12-18T07:56:48;-5.80;99.90
46976;DHT22;32724;51.094;6.996;2022-12-18T07:59:14;-5.80;99.90
46976;DHT22;32724;51.094;6.996;2022-12-18T08:01:39;-5.80;99.90
46976;DHT22;32724;51.094;6.996;2022-12-18T08:04:05;-5.80;99.90
46976;DHT22;32724;51.094;6.996;2022-12-18T08:06:30;-5.90;99.90
46976;DHT22;32724;51.094;6.996;2022-12-18T08:08:56;-5.90;99.90
46976;DHT22;32724;51.094;6.996;2022-12-18T08:11:22;-5.90;99.90
46976;DHT22;32724;51.094;6.996;2022-12-18T08:13:48;-5.90;99.90
46976;DHT22;32724;51.094;6.996;2022-12-18T08:16:13;-5.90;99.90
46976;DHT22;32724;51.094;6.996;2022-12-18T08:18:39;-5.80;99.90
46976;DHT22;32724;51.094;6.996;2022-12-18T08:21:24;-5.80;99.90
46976;DHT22;32724;51.094;6.996;2022-12-18T08:24:18;-5.80;99.90
46976;DHT22;32724;51.094;6.996;2022-12-18T08:26:43;-5.00;99.90
46976;DHT22;32724;51.094;6.996;2022-12-18T08:29:09;-5.00;99.90
46976;DHT22;32724;51.094;6.996;2022-12-18T08:31:35;-5.00;99.90
46976;DHT22;32724;51.094;6.996;2022-12-18T08:34:00;-4.90;99.90
46976;DHT22;32724;51.094;6.996;2022-12-18T08:36:26;-4.90;99.90
46976;DHT22;32724;51.094;6.996;2022-12-18T08:38:51;-4.80;99.90
46976;DHT22;32724;51.094;6.996;2022-12-18T08:41:17;-4.60;99.90
46976;DHT22;32724;51.094;6.996;2022-12-18T08:43:43;-4.50;99.90
46976;DHT22;32724;51.094;6.996;2022-12-18T08:46:31;-4.30;99.90
46976;DHT22;32724;51.094;6.996;2022-12-18T08:48:57;-4.20;99.90
46976;DHT22;32724;51.094;6.996;2022-12-18T08:51:23;-4.00;99.90
46976;DHT22;32724;51.094;6.996;2022-12-18T08:53:48;-3.80;99.90
46976;DHT22;32724;51.094;6.996;2022-12-18T08:56:14;-3.70;99.90
46976;DHT22;32724;51.094;6.996;2022-12-18T08:58:40;-3.50;99.90
46976;DHT22;32724;51.094;6.996;2022-12-18T09:01:06;-3.40;99.90
46976;DHT22;32724;51.094;6.996;2022-12-18T09:03:32;-3.30;99.90
46976;DHT22;32724;51.094;6.996;2022-12-18T09:05:58;-3.20;99.90
46976;DHT22;32724;51.094;6.996;2022-12-18T09:08:23;-3.10;99.90
46976;DHT22;32724;51.094;6.996;2022-12-18T09:10:49;-3.10;99.90
46976;DHT22;32724;51.094;6.996;2022-12-18T09:13:15;-3.00;99.90
46976;DHT22;32724;51.094;6.996;2022-12-18T09:15:41;-3.00;99.90
46976;DHT22;32724;51.094;6.996;2022-12-18T09:18:07;-3.00;99.90
46976;DHT22;32724;51.094;6.996;2022-12-18T09:20:34;-2.90;99.90
46976;DHT22;32724;51.094;6.996;2022-12-18T09:23:00;-2.90;99.90
46976;DHT22;32724;51.094;6.996;2022-12-18T09:25:25;-2.90;99.90
46976;DHT22;32724;51.094;6.996;2022-12-18T09:27:53;-2.80;99.90
46976;DHT22;32724;51.094;6.996;2022-12-18T09:30:18;-2.80;99.90
46976;DHT22;32724;51.094;6.996;2022-12-18T09:32:44;-2.80;99.90
46976;DHT22;32724;51.094;6.996;2022-12-18T09:35:09;-2.60;99.90
46976;DHT22;32724;51.094;6.996;2022-12-18T09:37:34;-2.50;99.90
46976;DHT22;32724;51.094;6.996;2022-12-18T09:40:00;-2.40;99.90
46976;DHT22;32724;51.094;6.996;2022-12-18T09:42:25;-2.30;99.90
46976;DHT22;32724;51.094;6.996;2022-12-18T09:44:52;-2.20;99.90
46976;DHT22;32724;51.094;6.996;2022-12-18T09:50:01;-1.90;99.90
46976;DHT22;32724;51.094;6.996;2022-12-18T09:52:32;-1.80;99.90
46976;DHT22;32724;51.094;6.996;2022-12-18T09:57:33;-1.20;99.90
46976;DHT22;32724;51.094;6.996;2022-12-18T10:00:06;-1.00;99.90
46976;DHT22;32724;51.094;6.996;2022-12-18T10:02:34;-0.90;99.90
46976;DHT22;32724;51.094;6.996;2022-12-18T10:07:28;-0.60;99.90
46976;DHT22;32724;51.094;6.996;2022-12-18T10:10:10;-0.70;99.90
46976;DHT22;32724;51.094;6.996;2022-12-18T10:17:53;-0.40;99.90
46976;DHT22;32724;51.094;6.996;2022-12-18T10:20:24;-0.40;99.90
46976;DHT22;32724;51.094;6.996;2022-12-18T10:22:57;-0.40;99.90
46976;DHT22;32724;51.094;6.996;2022-12-18T10:25:34;-0.30;99.90
46976;DHT22;32724;51.094;6.996;2022-12-18T10:28:10;-0.20;99.90
46976;DHT22;32724;51.094;6.996;2022-12-18T10:30:36;-0.10;99.90
46976;DHT22;32724;51.094;6.996;2022-12-18T10:33:03;-0.10;99.90
46976;DHT22;32724;51.094;6.996;2022-12-18T10:35:28;-0.10;99.90
46976;DHT22;32724;51.094;6.996;2022-12-18T10:40:29;0.00;99.90
46976;DHT22;32724;51.094;6.996;2022-12-18T10:43:04;0.10;99.90
46976;DHT22;32724;51.094;6.996;2022-12-18T10:45:30;0.20;99.90
46976;DHT22;32724;51.094;6.996;2022-12-18T10:47:56;0.30;99.90
46976;DHT22;32724;51.094;6.996;2022-12-18T10:50:32;0.30;99.90
46976;DHT22;32724;51.094;6.996;2022-12-18T10:52:58;0.40;99.90
46976;DHT22;32724;51.094;6.996;2022-12-18T10:55:30;0.40;99.90
46976;DHT22;32724;51.094;6.996;2022-12-18T10:57:56;0.40;99.90
46976;DHT22;32724;51.094;6.996;2022-12-18T11:00:38;0.40;99.90
46976;DHT22;32724;51.094;6.996;2022-12-18T11:03:07;0.40;99.90
46976;DHT22;32724;51.094;6.996;2022-12-18T11:05:49;0.30;99.90
46976;DHT22;32724;51.094;6.996;2022-12-18T11:11:24;0.40;99.90
46976;DHT22;32724;51.094;6.996;2022-12-18T11:14:01;0.50;99.90
46976;DHT22;32724;51.094;6.996;2022-12-18T11:16:27;0.50;99.90
46976;DHT22;32724;51.094;6.996;2022-12-18T11:18:53;0.60;99.90
46976;DHT22;32724;51.094;6.996;2022-12-18T11:21:19;0.60;99.90
46976;DHT22;32724;51.094;6.996;2022-12-18T11:23:51;0.60;99.90
46976;DHT22;32724;51.094;6.996;2022-12-18T11:26:17;0.60;99.90
46976;DHT22;32724;51.094;6.996;2022-12-18T11:28:49;0.70;99.90
46976;DHT22;32724;51.094;6.996;2022-12-18T11:36:15;0.70;99.90
46976;DHT22;32724;51.094;6.996;2022-12-18T11:38:42;0.70;99.90
46976;DHT22;32724;51.094;6.996;2022-12-18T11:43:42;0.70;99.90
46976;DHT22;32724;51.094;6.996;2022-12-18T11:46:12;0.60;99.90
46976;DHT22;32724;51.094;6.996;2022-12-18T11:48:43;0.60;99.90
46976;DHT22;32724;51.094;6.996;2022-12-18T11:51:11;0.60;99.90
46976;DHT22;32724;51.094;6.996;2022-12-18T11:53:39;0.60;99.90
46976;DHT22;32724;51.094;6.996;2022-12-18T11:56:16;0.50;99.90
46976;DHT22;32724;51.094;6.996;2022-12-18T11:58:47;0.50;99.90
46976;DHT22;32724;51.094;6.996;2022-12-18T12:01:15;0.50;99.90
46976;DHT22;32724;51.094;6.996;2022-12-18T12:03:46;0.50;99.90
46976;DHT22;32724;51.094;6.996;2022-12-18T12:06:18;0.40;99.90
46976;DHT22;32724;51.094;6.996;2022-12-18T12:08:58;0.40;99.90
46976;DHT22;32724;51.094;6.996;2022-12-18T12:14:04;0.40;99.90
46976;DHT22;32724;51.094;6.996;2022-12-18T12:16:48;0.40;99.90
46976;DHT22;32724;51.094;6.996;2022-12-18T12:21:57;0.40;99.90
46976;DHT22;32724;51.094;6.996;2022-12-18T12:27:03;0.40;99.90
46976;DHT22;32724;51.094;6.996;2022-12-18T12:32:17;0.30;99.90
46976;DHT22;32724;51.094;6.996;2022-12-18T12:39:42;0.30;99.90
46976;DHT22;32724;51.094;6.996;2022-12-18T12:42:14;0.30;99.90
46976;DHT22;32724;51.094;6.996;2022-12-18T12:45:01;0.30;99.90
46976;DHT22;32724;51.094;6.996;2022-12-18T12:47:30;0.30;99.90
46976;DHT22;32724;51.094;6.996;2022-12-18T12:49:58;0.20;99.90
46976;DHT22;32724;51.094;6.996;2022-12-18T12:52:27;0.20;99.90
46976;DHT22;32724;51.094;6.996;2022-12-18T12:54:54;0.20;99.90
46976;DHT22;32724;51.094;6.996;2022-12-18T12:57:25;0.20;99.90
46976;DHT22;32724;51.094;6.996;2022-12-18T13:07:45;0.10;99.90
46976;DHT22;32724;51.094;6.996;2022-12-18T13:18:02;0.10;99.90
46976;DHT22;32724;51.094;6.996;2022-12-18T13:20:38;0.20;99.90
46976;DHT22;32724;51.094;6.996;2022-12-18T13:25:48;0.10;99.90
46976;DHT22;32724;51.094;6.996;2022-12-18T13:28:15;0.10;99.90
46976;DHT22;32724;51.094;6.996;2022-12-18T13:38:20;-0.20;99.90
46976;DHT22;32724;51.094;6.996;2022-12-18T13:43:58;-0.40;99.90
46976;DHT22;32724;51.094;6.996;2022-12-18T13:48:32;-0.20;99.90
46976;DHT22;32724;51.094;6.996;2022-12-18T13:51:03;-0.10;99.90
46976;DHT22;32724;51.094;6.996;2022-12-18T13:53:30;-0.10;99.90
46976;DHT22;32724;51.094;6.996;2022-12-18T13:55:57;-0.10;99.90
46976;DHT22;32724;51.094;6.996;2022-12-18T13:58:23;0.00;99.90
46976;DHT22;32724;51.094;6.996;2022-12-18T14:00:48;0.00;99.90
46976;DHT22;32724;51.094;6.996;2022-12-18T14:03:18;0.00;99.90
46976;DHT22;32724;51.094;6.996;2022-12-18T14:05:44;0.00;99.90
46976;DHT22;32724;51.094;6.996;2022-12-18T14:08:12;-0.10;99.90
46976;DHT22;32724;51.094;6.996;2022-12-18T14:10:40;-0.10;99.90
46976;DHT22;32724;51.094;6.996;2022-12-18T14:13:06;-0.20;99.90
46976;DHT22;32724;51.094;6.996;2022-12-18T14:15:51;-0.20;99.90
46976;DHT22;32724;51.094;6.996;2022-12-18T14:18:20;-0.20;99.90
46976;DHT22;32724;51.094;6.996;2022-12-18T14:20:47;-0.20;99.90
46976;DHT22;32724;51.094;6.996;2022-12-18T14:25:57;-0.30;99.90
46976;DHT22;32724;51.094;6.996;2022-12-18T14:28:22;-0.30;99.90
46976;DHT22;32724;51.094;6.996;2022-12-18T14:30:48;-0.30;99.90
46976;DHT22;32724;51.094;6.996;2022-12-18T14:33:15;-0.30;99.90
46976;DHT22;32724;51.094;6.996;2022-12-18T14:35:42;-0.30;99.90
46976;DHT22;32724;51.094;6.996;2022-12-18T14:40:58;-0.30;99.90
46976;DHT22;32724;51.094;6.996;2022-12-18T14:43:24;-0.30;99.90
46976;DHT22;32724;51.094;6.996;2022-12-18T14:45:50;-0.30;99.90
46976;DHT22;32724;51.094;6.996;2022-12-18T14:48:17;-0.30;99.90
46976;DHT22;32724;51.094;6.996;2022-12-18T14:50:44;-0.40;99.90
46976;DHT22;32724;51.094;6.996;2022-12-18T14:55:54;-0.40;99.90
46976;DHT22;32724;51.094;6.996;2022-12-18T14:58:19;-0.40;99.90
46976;DHT22;32724;51.094;6.996;2022-12-18T15:00:45;-0.40;99.90
46976;DHT22;32724;51.094;6.996;2022-12-18T15:03:12;-0.40;99.90
46976;DHT22;32724;51.094;6.996;2022-12-18T15:05:40;-0.40;99.90
46976;DHT22;32724;51.094;6.996;2022-12-18T15:08:24;-0.40;99.90
46976;DHT22;32724;51.094;6.996;2022-12-18T15:10:51;-0.30;99.90
46976;DHT22;32724;51.094;6.996;2022-12-18T15:13:20;-0.40;99.90
46976;DHT22;32724;51.094;6.996;2022-12-18T15:15:47;-0.40;99.90
46976;DHT22;32724;51.094;6.996;2022-12-18T15:18:14;-0.50;99.90
46976;DHT22;32724;51.094;6.996;2022-12-18T15:23:32;-0.50;99.90
46976;DHT22;32724;51.094;6.996;2022-12-18T15:26:00;-0.50;99.90
46976;DHT22;32724;51.094;6.996;2022-12-18T15:28:27;-0.50;99.90
46976;DHT22;32724;51.094;6.996;2022-12-18T15:33:33;-0.50;99.90
46976;DHT22;32724;51.094;6.996;2022-12-18T15:36:00;-0.50;99.90
46976;DHT22;32724;51.094;6.996;2022-12-18T15:38:26;-0.60;99.90
46976;DHT22;32724;51.094;6.996;2022-12-18T15:40:52;-0.60;99.90
46976;DHT22;32724;51.094;6.996;2022-12-18T15:43:17;-0.60;99.90
46976;DHT22;32724;51.094;6.996;2022-12-18T15:45:59;-0.60;99.90
46976;DHT22;32724;51.094;6.996;2022-12-18T15:48:25;-0.70;99.90
46976;DHT22;32724;51.094;6.996;2022-12-18T15:50:50;-0.70;99.90
46976;DHT22;32724;51.094;6.996;2022-12-18T15:53:17;-0.60;99.90
46976;DHT22;32724;51.094;6.996;2022-12-18T15:55:42;-0.70;99.90
46976;DHT22;32724;51.094;6.996;2022-12-18T15:58:27;-0.60;99.90
46976;DHT22;32724;51.094;6.996;2022-12-18T16:00:52;-0.70;99.90
46976;DHT22;32724;51.094;6.996;2022-12-18T16:03:18;-0.70;99.90
46976;DHT22;32724;51.094;6.996;2022-12-18T16:05:44;-0.70;99.90
46976;DHT22;32724;51.094;6.996;2022-12-18T16:08:09;-0.70;99.90
46976;DHT22;32724;51.094;6.996;2022-12-18T16:10:34;-0.70;99.90
46976;DHT22;32724;51.094;6.996;2022-12-18T16:13:00;-0.70;99.90
46976;DHT22;32724;51.094;6.996;2022-12-18T16:15:25;-0.70;99.90
46976;DHT22;32724;51.094;6.996;2022-12-18T16:17:51;-0.80;99.90
46976;DHT22;32724;51.094;6.996;2022-12-18T16:20:18;-0.80;99.90
46976;DHT22;32724;51.094;6.996;2022-12-18T16:22:44;-0.70;99.90
46976;DHT22;32724;51.094;6.996;2022-12-18T16:25:21;-0.80;99.90
46976;DHT22;32724;51.094;6.996;2022-12-18T16:27:46;-0.80;99.90
46976;DHT22;32724;51.094;6.996;2022-12-18T16:30:16;-0.90;99.90
46976;DHT22;32724;51.094;6.996;2022-12-18T16:32:41;-0.90;99.90
46976;DHT22;32724;51.094;6.996;2022-12-18T16:35:09;-0.90;99.90
46976;DHT22;32724;51.094;6.996;2022-12-18T16:37:34;-0.90;99.90
46976;DHT22;32724;51.094;6.996;2022-12-18T16:40:00;-0.90;99.90
46976;DHT22;32724;51.094;6.996;2022-12-18T16:42:26;-0.90;99.90
46976;DHT22;32724;51.094;6.996;2022-12-18T16:44:51;-0.90;99.90
46976;DHT22;32724;51.094;6.996;2022-12-18T16:47:16;-1.00;99.90
46976;DHT22;32724;51.094;6.996;2022-12-18T16:49:42;-1.00;99.90
46976;DHT22;32724;51.094;6.996;2022-12-18T16:52:10;-0.90;99.90
46976;DHT22;32724;51.094;6.996;2022-12-18T16:54:35;-0.90;99.90
46976;DHT22;32724;51.094;6.996;2022-12-18T16:57:01;-0.90;99.90
46976;DHT22;32724;51.094;6.996;2022-12-18T16:59:26;-0.90;99.90
46976;DHT22;32724;51.094;6.996;2022-12-18T17:01:53;-1.00;99.90
46976;DHT22;32724;51.094;6.996;2022-12-18T17:04:20;-0.90;99.90
46976;DHT22;32724;51.094;6.996;2022-12-18T17:06:45;-0.90;99.90
46976;DHT22;32724;51.094;6.996;2022-12-18T17:09:16;-0.90;99.90
46976;DHT22;32724;51.094;6.996;2022-12-18T17:11:41;-0.90;99.90
46976;DHT22;32724;51.094;6.996;2022-12-18T17:14:17;-0.90;99.90
46976;DHT22;32724;51.094;6.996;2022-12-18T17:16:43;-0.90;99.90
46976;DHT22;32724;51.094;6.996;2022-12-18T17:19:09;-0.80;99.90
46976;DHT22;32724;51.094;6.996;2022-12-18T17:21:35;-0.90;99.90
46976;DHT22;32724;51.094;6.996;2022-12-18T17:24:01;-0.90;99.90
46976;DHT22;32724;51.094;6.996;2022-12-18T17:26:26;-0.90;99.90
46976;DHT22;32724;51.094;6.996;2022-12-18T17:28:52;-0.90;99.90
46976;DHT22;32724;51.094;6.996;2022-12-18T17:31:20;-0.90;99.90
46976;DHT22;32724;51.094;6.996;2022-12-18T17:33:46;-1.00;99.90
46976;DHT22;32724;51.094;6.996;2022-12-18T17:36:12;-0.90;99.90